sensor_id;sensor_type;location;lat;lon;timestamp;P1;durP1;ratioP1;P2;durP2;ratioP2
17251;SDS011;8742;51.716;8.790;2023-11-22T00:00:13;6.27;;;3.60;;
17251;SDS011;8742;51.716;8.790;2023-11-22T00:02:40;5.53;;;3.60;;
17251;SDS011;8742;51.716;8.790;2023-11-22T00:05:07;9.40;;;4.50;;
17251;SDS011;8742;51.716;8.790;2023-11-22T00:07:36;8.80;;;3.93;;
17251;SDS011;8742;51.716;8.790;2023-11-22T00:10:03;8.70;;;4.37;;
17251;SDS011;8742;51.716;8.790;2023-11-22T00:12:32;12.50;;;4.50;;
17251;SDS011;8742;51.716;8.790;2023-11-22T00:15:02;9.47;;;4.43;;
17251;SDS011;8742;51.716;8.790;2023-11-22T00:17:31;7.10;;;4.10;;
17251;SDS011;8742;51.716;8.790;2023-11-22T00:19:58;8.30;;;4.70;;
17251;SDS011;8742;51.716;8.790;2023-11-22T00:22:25;6.80;;;4.20;;
17251;SDS011;8742;51.716;8.790;2023-11-22T00:24:52;8.37;;;4.73;;
17251;SDS011;8742;51.716;8.790;2023-11-22T00:27:19;9.03;;;4.97;;
17251;SDS011;8742;51.716;8.790;2023-11-22T00:29:48;8.40;;;4.60;;
17251;SDS011;8742;51.716;8.790;2023-11-22T00:32:15;7.43;;;4.73;;
17251;SDS011;8742;51.716;8.790;2023-11-22T00:34:41;8.60;;;4.70;;
17251;SDS011;8742;51.716;8.790;2023-11-22T00:37:08;8.67;;;4.70;;
17251;SDS011;8742;51.716;8.790;2023-11-22T00:39:35;8.73;;;4.97;;
17251;SDS011;8742;51.716;8.790;2023-11-22T00:42:03;13.77;;;5.20;;
17251;SDS011;8742;51.716;8.790;2023-11-22T00:44:30;9.53;;;5.07;;
17251;SDS011;8742;51.716;8.790;2023-11-22T00:46:58;10.23;;;4.80;;
17251;SDS011;8742;51.716;8.790;2023-11-22T00:49:25;10.33;;;5.27;;
17251;SDS011;8742;51.716;8.790;2023-11-22T00:51:52;8.70;;;4.47;;
17251;SDS011;8742;51.716;8.790;2023-11-22T00:54:18;10.80;;;5.50;;
17251;SDS011;8742;51.716;8.790;2023-11-22T00:56:46;9.67;;;4.83;;
17251;SDS011;8742;51.716;8.790;2023-11-22T00:59:13;8.57;;;4.93;;
17251;SDS011;8742;51.716;8.790;2023-11-22T01:01:41;7.73;;;4.97;;
17251;SDS011;8742;51.716;8.790;2023-11-22T01:04:09;9.87;;;4.57;;
17251;SDS011;8742;51.716;8.790;2023-11-22T01:06:36;7.50;;;4.70;;
17251;SDS011;8742;51.716;8.790;2023-11-22T01:09:05;8.23;;;4.87;;
17251;SDS011;8742;51.716;8.790;2023-11-22T01:11:33;11.70;;;5.10;;
17251;SDS011;8742;51.716;8.790;2023-11-22T01:14:00;10.83;;;5.03;;
17251;SDS011;8742;51.716;8.790;2023-11-22T01:16:27;10.10;;;5.20;;
17251;SDS011;8742;51.716;8.790;2023-11-22T01:18:54;11.27;;;5.13;;
17251;SDS011;8742;51.716;8.790;2023-11-22T01:21:22;10.87;;;5.47;;
17251;SDS011;8742;51.716;8.790;2023-11-22T01:23:50;8.63;;;4.83;;
17251;SDS011;8742;51.716;8.790;2023-11-22T01:26:17;8.03;;;5.20;;
17251;SDS011;8742;51.716;8.790;2023-11-22T01:28:43;10.10;;;5.27;;
17251;SDS011;8742;51.716;8.790;2023-11-22T01:31:11;11.67;;;5.40;;
17251;SDS011;8742;51.716;8.790;2023-11-22T01:33:39;9.23;;;5.47;;
17251;SDS011;8742;51.716;8.790;2023-11-22T01:36:06;11.47;;;5.10;;
17251;SDS011;8742;51.716;8.790;2023-11-22T01:38:35;11.50;;;5.77;;
17251;SDS011;8742;51.716;8.790;2023-11-22T01:41:04;11.27;;;4.90;;
17251;SDS011;8742;51.716;8.790;2023-11-22T01:43:31;13.50;;;5.80;;
17251;SDS011;8742;51.716;8.790;2023-11-22T01:45:58;10.13;;;5.40;;
17251;SDS011;8742;51.716;8.790;2023-11-22T01:48:45;9.90;;;5.57;;
17251;SDS011;8742;51.716;8.790;2023-11-22T01:51:12;14.10;;;5.93;;
17251;SDS011;8742;51.716;8.790;2023-11-22T01:53:41;10.73;;;5.80;;
17251;SDS011;8742;51.716;8.790;2023-11-22T01:56:08;9.30;;;5.47;;
17251;SDS011;8742;51.716;8.790;2023-11-22T01:58:35;8.50;;;5.43;;
17251;SDS011;8742;51.716;8.790;2023-11-22T02:01:02;8.37;;;5.17;;
17251;SDS011;8742;51.716;8.790;2023-11-22T02:03:31;11.23;;;5.87;;
17251;SDS011;8742;51.716;8.790;2023-11-22T02:05:58;11.67;;;6.17;;
17251;SDS011;8742;51.716;8.790;2023-11-22T02:08:25;14.90;;;6.43;;
17251;SDS011;8742;51.716;8.790;2023-11-22T02:11:01;13.70;;;6.20;;
17251;SDS011;8742;51.716;8.790;2023-11-22T02:13:29;13.70;;;6.33;;
17251;SDS011;8742;51.716;8.790;2023-11-22T02:15:56;9.50;;;5.70;;
17251;SDS011;8742;51.716;8.790;2023-11-22T02:18:34;13.10;;;5.73;;
17251;SDS011;8742;51.716;8.790;2023-11-22T02:21:02;13.43;;;6.40;;
17251;SDS011;8742;51.716;8.790;2023-11-22T02:23:30;13.13;;;6.63;;
17251;SDS011;8742;51.716;8.790;2023-11-22T02:25:57;10.13;;;6.13;;
17251;SDS011;8742;51.716;8.790;2023-11-22T02:28:25;15.03;;;5.87;;
17251;SDS011;8742;51.716;8.790;2023-11-22T02:30:52;10.47;;;6.30;;
17251;SDS011;8742;51.716;8.790;2023-11-22T02:33:19;13.57;;;6.87;;
17251;SDS011;8742;51.716;8.790;2023-11-22T02:35:46;17.90;;;6.93;;
17251;SDS011;8742;51.716;8.790;2023-11-22T02:38:20;12.40;;;6.07;;
17251;SDS011;8742;51.716;8.790;2023-11-22T02:40:49;11.10;;;5.43;;
17251;SDS011;8742;51.716;8.790;2023-11-22T02:43:16;11.73;;;6.13;;
17251;SDS011;8742;51.716;8.790;2023-11-22T02:45:43;15.43;;;6.50;;
17251;SDS011;8742;51.716;8.790;2023-11-22T02:48:09;14.23;;;6.40;;
17251;SDS011;8742;51.716;8.790;2023-11-22T02:50:36;12.17;;;6.10;;
17251;SDS011;8742;51.716;8.790;2023-11-22T02:53:04;18.30;;;6.27;;
17251;SDS011;8742;51.716;8.790;2023-11-22T02:55:32;14.33;;;6.27;;
17251;SDS011;8742;51.716;8.790;2023-11-22T02:58:00;14.63;;;6.53;;
17251;SDS011;8742;51.716;8.790;2023-11-22T03:00:27;14.97;;;6.67;;
17251;SDS011;8742;51.716;8.790;2023-11-22T03:02:55;15.13;;;7.30;;
17251;SDS011;8742;51.716;8.790;2023-11-22T03:05:22;11.03;;;6.50;;
17251;SDS011;8742;51.716;8.790;2023-11-22T03:07:49;16.07;;;7.70;;
17251;SDS011;8742;51.716;8.790;2023-11-22T03:10:16;17.07;;;7.43;;
17251;SDS011;8742;51.716;8.790;2023-11-22T03:12:44;14.80;;;7.10;;
17251;SDS011;8742;51.716;8.790;2023-11-22T03:15:12;13.67;;;7.03;;
17251;SDS011;8742;51.716;8.790;2023-11-22T03:17:39;16.70;;;7.47;;
17251;SDS011;8742;51.716;8.790;2023-11-22T03:20:06;14.57;;;7.53;;
17251;SDS011;8742;51.716;8.790;2023-11-22T03:22:36;15.30;;;7.90;;
17251;SDS011;8742;51.716;8.790;2023-11-22T03:25:03;18.60;;;8.37;;
17251;SDS011;8742;51.716;8.790;2023-11-22T03:27:31;21.67;;;7.90;;
17251;SDS011;8742;51.716;8.790;2023-11-22T03:29:59;18.87;;;7.87;;
17251;SDS011;8742;51.716;8.790;2023-11-22T03:32:27;14.67;;;7.87;;
17251;SDS011;8742;51.716;8.790;2023-11-22T03:34:54;14.80;;;7.90;;
17251;SDS011;8742;51.716;8.790;2023-11-22T03:37:22;18.83;;;8.20;;
17251;SDS011;8742;51.716;8.790;2023-11-22T03:39:49;15.07;;;7.53;;
17251;SDS011;8742;51.716;8.790;2023-11-22T03:42:16;11.83;;;7.07;;
17251;SDS011;8742;51.716;8.790;2023-11-22T03:44:43;14.97;;;7.53;;
17251;SDS011;8742;51.716;8.790;2023-11-22T03:47:10;17.80;;;6.90;;
17251;SDS011;8742;51.716;8.790;2023-11-22T03:49:39;17.47;;;7.70;;
17251;SDS011;8742;51.716;8.790;2023-11-22T03:52:06;14.67;;;6.83;;
17251;SDS011;8742;51.716;8.790;2023-11-22T03:54:34;18.27;;;7.97;;
17251;SDS011;8742;51.716;8.790;2023-11-22T03:57:01;17.93;;;8.47;;
17251;SDS011;8742;51.716;8.790;2023-11-22T03:59:28;19.33;;;7.57;;
17251;SDS011;8742;51.716;8.790;2023-11-22T04:01:55;17.90;;;8.23;;
17251;SDS011;8742;51.716;8.790;2023-11-22T04:04:22;18.43;;;7.87;;
17251;SDS011;8742;51.716;8.790;2023-11-22T04:06:50;17.13;;;7.80;;
17251;SDS011;8742;51.716;8.790;2023-11-22T04:09:17;15.43;;;7.63;;
17251;SDS011;8742;51.716;8.790;2023-11-22T04:11:45;17.87;;;7.97;;
17251;SDS011;8742;51.716;8.790;2023-11-22T04:14:12;17.93;;;8.07;;
17251;SDS011;8742;51.716;8.790;2023-11-22T04:16:39;20.03;;;8.23;;
17251;SDS011;8742;51.716;8.790;2023-11-22T04:19:06;18.80;;;7.87;;
17251;SDS011;8742;51.716;8.790;2023-11-22T04:21:33;14.33;;;7.97;;
17251;SDS011;8742;51.716;8.790;2023-11-22T04:24:01;17.93;;;6.93;;
17251;SDS011;8742;51.716;8.790;2023-11-22T04:26:28;15.13;;;6.77;;
17251;SDS011;8742;51.716;8.790;2023-11-22T04:28:55;16.97;;;7.30;;
17251;SDS011;8742;51.716;8.790;2023-11-22T04:31:23;14.90;;;7.47;;
17251;SDS011;8742;51.716;8.790;2023-11-22T04:33:50;20.93;;;7.83;;
17251;SDS011;8742;51.716;8.790;2023-11-22T04:36:17;16.43;;;7.73;;
17251;SDS011;8742;51.716;8.790;2023-11-22T04:38:44;14.97;;;7.63;;
17251;SDS011;8742;51.716;8.790;2023-11-22T04:41:12;16.87;;;7.43;;
17251;SDS011;8742;51.716;8.790;2023-11-22T04:43:39;20.63;;;8.67;;
17251;SDS011;8742;51.716;8.790;2023-11-22T04:46:07;15.87;;;7.97;;
17251;SDS011;8742;51.716;8.790;2023-11-22T04:48:34;22.83;;;8.10;;
17251;SDS011;8742;51.716;8.790;2023-11-22T04:51:02;15.87;;;8.00;;
17251;SDS011;8742;51.716;8.790;2023-11-22T04:53:28;20.27;;;9.60;;
17251;SDS011;8742;51.716;8.790;2023-11-22T04:55:57;28.70;;;12.67;;
17251;SDS011;8742;51.716;8.790;2023-11-22T04:58:25;39.07;;;16.97;;
17251;SDS011;8742;51.716;8.790;2023-11-22T05:00:52;34.63;;;15.97;;
17251;SDS011;8742;51.716;8.790;2023-11-22T05:03:19;37.63;;;15.47;;
17251;SDS011;8742;51.716;8.790;2023-11-22T05:05:46;33.03;;;13.57;;
17251;SDS011;8742;51.716;8.790;2023-11-22T05:08:13;28.33;;;10.70;;
17251;SDS011;8742;51.716;8.790;2023-11-22T05:10:40;21.40;;;9.90;;
17251;SDS011;8742;51.716;8.790;2023-11-22T05:13:07;18.53;;;9.30;;
17251;SDS011;8742;51.716;8.790;2023-11-22T05:15:35;19.03;;;8.70;;
17251;SDS011;8742;51.716;8.790;2023-11-22T05:18:02;15.37;;;7.73;;
17251;SDS011;8742;51.716;8.790;2023-11-22T05:20:31;21.27;;;9.87;;
17251;SDS011;8742;51.716;8.790;2023-11-22T05:22:58;23.10;;;8.60;;
17251;SDS011;8742;51.716;8.790;2023-11-22T05:25:24;20.40;;;9.23;;
17251;SDS011;8742;51.716;8.790;2023-11-22T05:27:51;25.20;;;9.53;;
17251;SDS011;8742;51.716;8.790;2023-11-22T05:30:18;17.93;;;8.90;;
17251;SDS011;8742;51.716;8.790;2023-11-22T05:32:47;17.27;;;8.53;;
17251;SDS011;8742;51.716;8.790;2023-11-22T05:35:14;21.20;;;9.30;;
17251;SDS011;8742;51.716;8.790;2023-11-22T05:37:41;17.77;;;8.20;;
17251;SDS011;8742;51.716;8.790;2023-11-22T05:40:08;18.07;;;9.37;;
17251;SDS011;8742;51.716;8.790;2023-11-22T05:42:35;21.17;;;9.30;;
17251;SDS011;8742;51.716;8.790;2023-11-22T05:45:03;19.07;;;8.50;;
17251;SDS011;8742;51.716;8.790;2023-11-22T05:47:30;19.07;;;8.70;;
17251;SDS011;8742;51.716;8.790;2023-11-22T05:49:58;17.73;;;8.03;;
17251;SDS011;8742;51.716;8.790;2023-11-22T05:52:25;17.20;;;8.73;;
17251;SDS011;8742;51.716;8.790;2023-11-22T05:54:52;22.50;;;9.50;;
17251;SDS011;8742;51.716;8.790;2023-11-22T05:57:18;18.53;;;8.60;;
17251;SDS011;8742;51.716;8.790;2023-11-22T05:59:45;22.57;;;9.00;;
17251;SDS011;8742;51.716;8.790;2023-11-22T06:02:12;19.17;;;9.23;;
17251;SDS011;8742;51.716;8.790;2023-11-22T06:04:39;19.70;;;9.10;;
17251;SDS011;8742;51.716;8.790;2023-11-22T06:07:08;23.73;;;9.47;;
17251;SDS011;8742;51.716;8.790;2023-11-22T06:09:35;18.53;;;9.10;;
17251;SDS011;8742;51.716;8.790;2023-11-22T06:12:02;20.50;;;8.53;;
17251;SDS011;8742;51.716;8.790;2023-11-22T06:14:29;23.53;;;9.53;;
17251;SDS011;8742;51.716;8.790;2023-11-22T06:16:56;20.90;;;9.40;;
17251;SDS011;8742;51.716;8.790;2023-11-22T06:19:23;25.10;;;9.30;;
17251;SDS011;8742;51.716;8.790;2023-11-22T06:21:50;21.13;;;9.57;;
17251;SDS011;8742;51.716;8.790;2023-11-22T06:24:18;22.43;;;9.50;;
17251;SDS011;8742;51.716;8.790;2023-11-22T06:26:45;26.80;;;9.83;;
17251;SDS011;8742;51.716;8.790;2023-11-22T06:29:12;27.00;;;10.93;;
17251;SDS011;8742;51.716;8.790;2023-11-22T06:31:39;25.87;;;10.90;;
17251;SDS011;8742;51.716;8.790;2023-11-22T06:34:06;27.67;;;10.50;;
17251;SDS011;8742;51.716;8.790;2023-11-22T06:36:33;25.90;;;11.13;;
17251;SDS011;8742;51.716;8.790;2023-11-22T06:39:00;34.47;;;11.40;;
17251;SDS011;8742;51.716;8.790;2023-11-22T06:41:30;21.27;;;10.53;;
17251;SDS011;8742;51.716;8.790;2023-11-22T06:43:57;26.47;;;11.00;;
17251;SDS011;8742;51.716;8.790;2023-11-22T06:46:24;28.20;;;11.93;;
17251;SDS011;8742;51.716;8.790;2023-11-22T06:48:51;28.77;;;11.97;;
17251;SDS011;8742;51.716;8.790;2023-11-22T06:51:18;30.00;;;12.13;;
17251;SDS011;8742;51.716;8.790;2023-11-22T06:53:45;29.53;;;12.47;;
17251;SDS011;8742;51.716;8.790;2023-11-22T06:56:12;26.23;;;11.50;;
17251;SDS011;8742;51.716;8.790;2023-11-22T06:58:41;28.70;;;11.90;;
17251;SDS011;8742;51.716;8.790;2023-11-22T07:01:07;26.13;;;10.13;;
17251;SDS011;8742;51.716;8.790;2023-11-22T07:03:35;24.33;;;10.30;;
17251;SDS011;8742;51.716;8.790;2023-11-22T07:06:03;30.23;;;11.13;;
17251;SDS011;8742;51.716;8.790;2023-11-22T07:08:30;25.93;;;10.17;;
17251;SDS011;8742;51.716;8.790;2023-11-22T07:10:57;26.93;;;10.67;;
17251;SDS011;8742;51.716;8.790;2023-11-22T07:13:23;23.43;;;10.50;;
17251;SDS011;8742;51.716;8.790;2023-11-22T07:15:53;25.00;;;10.97;;
17251;SDS011;8742;51.716;8.790;2023-11-22T07:18:20;20.60;;;10.00;;
17251;SDS011;8742;51.716;8.790;2023-11-22T07:20:49;24.23;;;9.37;;
17251;SDS011;8742;51.716;8.790;2023-11-22T07:23:18;24.63;;;9.77;;
17251;SDS011;8742;51.716;8.790;2023-11-22T07:25:46;23.57;;;10.30;;
17251;SDS011;8742;51.716;8.790;2023-11-22T07:28:13;22.93;;;10.13;;
17251;SDS011;8742;51.716;8.790;2023-11-22T07:30:40;26.37;;;10.33;;
17251;SDS011;8742;51.716;8.790;2023-11-22T07:33:08;27.73;;;10.53;;
17251;SDS011;8742;51.716;8.790;2023-11-22T07:35:36;26.97;;;11.53;;
17251;SDS011;8742;51.716;8.790;2023-11-22T07:38:04;25.93;;;11.73;;
17251;SDS011;8742;51.716;8.790;2023-11-22T07:40:33;31.17;;;12.77;;
17251;SDS011;8742;51.716;8.790;2023-11-22T07:43:00;31.33;;;12.40;;
17251;SDS011;8742;51.716;8.790;2023-11-22T07:45:29;38.07;;;13.33;;
17251;SDS011;8742;51.716;8.790;2023-11-22T07:47:56;22.10;;;10.63;;
17251;SDS011;8742;51.716;8.790;2023-11-22T07:50:26;30.37;;;11.10;;
17251;SDS011;8742;51.716;8.790;2023-11-22T07:52:54;23.43;;;10.50;;
17251;SDS011;8742;51.716;8.790;2023-11-22T07:55:22;27.43;;;10.43;;
17251;SDS011;8742;51.716;8.790;2023-11-22T07:57:48;29.57;;;10.53;;
17251;SDS011;8742;51.716;8.790;2023-11-22T08:00:16;20.20;;;9.80;;
17251;SDS011;8742;51.716;8.790;2023-11-22T08:02:45;20.73;;;9.73;;
17251;SDS011;8742;51.716;8.790;2023-11-22T08:05:12;24.60;;;9.73;;
17251;SDS011;8742;51.716;8.790;2023-11-22T08:07:41;19.43;;;8.90;;
17251;SDS011;8742;51.716;8.790;2023-11-22T08:10:11;22.57;;;8.90;;
17251;SDS011;8742;51.716;8.790;2023-11-22T08:12:44;18.77;;;8.57;;
17251;SDS011;8742;51.716;8.790;2023-11-22T08:15:11;19.70;;;7.53;;
17251;SDS011;8742;51.716;8.790;2023-11-22T08:17:39;17.83;;;8.00;;
17251;SDS011;8742;51.716;8.790;2023-11-22T08:20:07;13.93;;;7.37;;
17251;SDS011;8742;51.716;8.790;2023-11-22T08:22:37;14.67;;;7.33;;
17251;SDS011;8742;51.716;8.790;2023-11-22T08:25:06;14.70;;;7.10;;
17251;SDS011;8742;51.716;8.790;2023-11-22T08:27:37;16.77;;;7.80;;
17251;SDS011;8742;51.716;8.790;2023-11-22T08:30:06;17.70;;;7.20;;
17251;SDS011;8742;51.716;8.790;2023-11-22T08:32:38;22.97;;;8.40;;
17251;SDS011;8742;51.716;8.790;2023-11-22T08:35:09;17.17;;;6.57;;
17251;SDS011;8742;51.716;8.790;2023-11-22T08:37:39;10.43;;;5.93;;
17251;SDS011;8742;51.716;8.790;2023-11-22T08:40:08;9.00;;;5.03;;
17251;SDS011;8742;51.716;8.790;2023-11-22T08:42:39;10.10;;;4.80;;
17251;SDS011;8742;51.716;8.790;2023-11-22T08:45:07;3.73;;;3.00;;
17251;SDS011;8742;51.716;8.790;2023-11-22T08:47:36;5.53;;;3.60;;
17251;SDS011;8742;51.716;8.790;2023-11-22T08:50:05;4.90;;;3.30;;
17251;SDS011;8742;51.716;8.790;2023-11-22T08:52:33;4.73;;;2.60;;
17251;SDS011;8742;51.716;8.790;2023-11-22T08:55:01;4.03;;;2.97;;
17251;SDS011;8742;51.716;8.790;2023-11-22T08:57:30;3.33;;;2.67;;
17251;SDS011;8742;51.716;8.790;2023-11-22T08:59:57;3.93;;;2.80;;
17251;SDS011;8742;51.716;8.790;2023-11-22T09:02:31;4.57;;;3.13;;
17251;SDS011;8742;51.716;8.790;2023-11-22T09:04:57;4.30;;;2.90;;
17251;SDS011;8742;51.716;8.790;2023-11-22T09:07:24;5.20;;;2.80;;
17251;SDS011;8742;51.716;8.790;2023-11-22T09:09:54;2.40;;;2.20;;
17251;SDS011;8742;51.716;8.790;2023-11-22T09:12:23;3.50;;;2.40;;
17251;SDS011;8742;51.716;8.790;2023-11-22T09:14:53;7.00;;;3.00;;
17251;SDS011;8742;51.716;8.790;2023-11-22T09:17:20;5.70;;;3.00;;
17251;SDS011;8742;51.716;8.790;2023-11-22T09:19:52;5.03;;;2.83;;
17251;SDS011;8742;51.716;8.790;2023-11-22T09:22:23;3.77;;;2.60;;
17251;SDS011;8742;51.716;8.790;2023-11-22T09:24:51;2.53;;;2.33;;
17251;SDS011;8742;51.716;8.790;2023-11-22T09:27:18;5.23;;;2.97;;
17251;SDS011;8742;51.716;8.790;2023-11-22T09:29:46;6.57;;;2.93;;
17251;SDS011;8742;51.716;8.790;2023-11-22T09:32:16;3.67;;;2.63;;
17251;SDS011;8742;51.716;8.790;2023-11-22T09:34:58;2.90;;;2.60;;
17251;SDS011;8742;51.716;8.790;2023-11-22T09:37:26;4.90;;;2.50;;
17251;SDS011;8742;51.716;8.790;2023-11-22T09:39:54;2.60;;;2.20;;
17251;SDS011;8742;51.716;8.790;2023-11-22T09:42:20;3.60;;;2.33;;
17251;SDS011;8742;51.716;8.790;2023-11-22T09:44:47;8.10;;;2.40;;
17251;SDS011;8742;51.716;8.790;2023-11-22T09:47:16;2.67;;;2.00;;
17251;SDS011;8742;51.716;8.790;2023-11-22T09:49:44;4.40;;;2.17;;
17251;SDS011;8742;51.716;8.790;2023-11-22T09:52:17;3.63;;;2.77;;
17251;SDS011;8742;51.716;8.790;2023-11-22T09:54:49;3.30;;;2.20;;
17251;SDS011;8742;51.716;8.790;2023-11-22T09:57:18;3.53;;;2.53;;
17251;SDS011;8742;51.716;8.790;2023-11-22T09:59:47;3.13;;;2.43;;
17251;SDS011;8742;51.716;8.790;2023-11-22T10:02:19;4.97;;;2.77;;
17251;SDS011;8742;51.716;8.790;2023-11-22T10:04:51;4.37;;;2.20;;
17251;SDS011;8742;51.716;8.790;2023-11-22T10:07:18;2.73;;;1.80;;
17251;SDS011;8742;51.716;8.790;2023-11-22T10:09:45;2.67;;;2.20;;
17251;SDS011;8742;51.716;8.790;2023-11-22T10:12:12;2.50;;;2.23;;
17251;SDS011;8742;51.716;8.790;2023-11-22T10:14:40;2.57;;;2.03;;
17251;SDS011;8742;51.716;8.790;2023-11-22T10:17:07;4.40;;;2.27;;
17251;SDS011;8742;51.716;8.790;2023-11-22T10:19:36;3.03;;;2.00;;
17251;SDS011;8742;51.716;8.790;2023-11-22T10:22:03;5.00;;;2.17;;
17251;SDS011;8742;51.716;8.790;2023-11-22T10:24:31;2.53;;;1.90;;
17251;SDS011;8742;51.716;8.790;2023-11-22T10:27:00;3.07;;;2.10;;
17251;SDS011;8742;51.716;8.790;2023-11-22T10:29:28;2.67;;;2.30;;
17251;SDS011;8742;51.716;8.790;2023-11-22T10:31:55;2.17;;;1.97;;
17251;SDS011;8742;51.716;8.790;2023-11-22T10:34:22;3.40;;;2.23;;
17251;SDS011;8742;51.716;8.790;2023-11-22T10:36:51;5.30;;;2.40;;
17251;SDS011;8742;51.716;8.790;2023-11-22T10:39:19;3.47;;;2.03;;
17251;SDS011;8742;51.716;8.790;2023-11-22T10:41:46;4.27;;;2.60;;
17251;SDS011;8742;51.716;8.790;2023-11-22T10:44:15;2.97;;;2.40;;
17251;SDS011;8742;51.716;8.790;2023-11-22T10:46:42;4.00;;;2.30;;
17251;SDS011;8742;51.716;8.790;2023-11-22T10:49:09;4.97;;;2.40;;
17251;SDS011;8742;51.716;8.790;2023-11-22T10:51:37;4.97;;;2.33;;
17251;SDS011;8742;51.716;8.790;2023-11-22T10:54:08;3.00;;;2.30;;
17251;SDS011;8742;51.716;8.790;2023-11-22T10:56:36;3.77;;;2.70;;
17251;SDS011;8742;51.716;8.790;2023-11-22T10:59:08;3.10;;;2.50;;
17251;SDS011;8742;51.716;8.790;2023-11-22T11:01:38;2.83;;;2.43;;
17251;SDS011;8742;51.716;8.790;2023-11-22T11:04:17;3.57;;;2.47;;
17251;SDS011;8742;51.716;8.790;2023-11-22T11:06:46;4.40;;;2.23;;
17251;SDS011;8742;51.716;8.790;2023-11-22T11:09:19;4.87;;;2.70;;
17251;SDS011;8742;51.716;8.790;2023-11-22T11:11:49;3.30;;;2.53;;
17251;SDS011;8742;51.716;8.790;2023-11-22T11:14:17;3.87;;;2.80;;
17251;SDS011;8742;51.716;8.790;2023-11-22T11:16:44;3.97;;;2.53;;
17251;SDS011;8742;51.716;8.790;2023-11-22T11:19:15;4.07;;;3.00;;
17251;SDS011;8742;51.716;8.790;2023-11-22T11:21:43;4.27;;;3.23;;
17251;SDS011;8742;51.716;8.790;2023-11-22T11:24:10;6.50;;;3.17;;
17251;SDS011;8742;51.716;8.790;2023-11-22T11:26:38;4.23;;;2.90;;
17251;SDS011;8742;51.716;8.790;2023-11-22T11:29:05;3.73;;;3.00;;
17251;SDS011;8742;51.716;8.790;2023-11-22T11:31:33;5.60;;;2.80;;
17251;SDS011;8742;51.716;8.790;2023-11-22T11:34:05;5.17;;;2.80;;
17251;SDS011;8742;51.716;8.790;2023-11-22T11:36:32;5.00;;;3.00;;
17251;SDS011;8742;51.716;8.790;2023-11-22T11:39:00;3.93;;;2.50;;
17251;SDS011;8742;51.716;8.790;2023-11-22T11:41:28;3.03;;;2.43;;
17251;SDS011;8742;51.716;8.790;2023-11-22T11:44:00;4.13;;;2.80;;
17251;SDS011;8742;51.716;8.790;2023-11-22T11:46:28;5.87;;;2.67;;
17251;SDS011;8742;51.716;8.790;2023-11-22T11:48:55;3.57;;;2.90;;
17251;SDS011;8742;51.716;8.790;2023-11-22T11:51:23;3.67;;;2.47;;
17251;SDS011;8742;51.716;8.790;2023-11-22T11:53:51;3.80;;;3.10;;
17251;SDS011;8742;51.716;8.790;2023-11-22T11:56:19;3.17;;;2.60;;
17251;SDS011;8742;51.716;8.790;2023-11-22T11:58:46;4.73;;;2.90;;
17251;SDS011;8742;51.716;8.790;2023-11-22T12:01:17;3.33;;;3.00;;
17251;SDS011;8742;51.716;8.790;2023-11-22T12:03:46;5.33;;;3.00;;
17251;SDS011;8742;51.716;8.790;2023-11-22T12:06:14;3.47;;;2.90;;
17251;SDS011;8742;51.716;8.790;2023-11-22T12:08:41;3.73;;;3.30;;
17251;SDS011;8742;51.716;8.790;2023-11-22T12:11:08;5.27;;;3.47;;
17251;SDS011;8742;51.716;8.790;2023-11-22T12:13:35;3.47;;;3.10;;
17251;SDS011;8742;51.716;8.790;2023-11-22T12:16:08;4.37;;;2.97;;
17251;SDS011;8742;51.716;8.790;2023-11-22T12:18:40;4.17;;;3.57;;
17251;SDS011;8742;51.716;8.790;2023-11-22T12:21:08;8.63;;;4.30;;
17251;SDS011;8742;51.716;8.790;2023-11-22T12:23:37;6.87;;;4.30;;
17251;SDS011;8742;51.716;8.790;2023-11-22T12:26:09;4.47;;;3.60;;
17251;SDS011;8742;51.716;8.790;2023-11-22T12:28:37;5.73;;;3.77;;
17251;SDS011;8742;51.716;8.790;2023-11-22T12:31:06;6.13;;;4.40;;
17251;SDS011;8742;51.716;8.790;2023-11-22T12:33:34;7.33;;;4.10;;
17251;SDS011;8742;51.716;8.790;2023-11-22T12:36:03;7.83;;;4.50;;
17251;SDS011;8742;51.716;8.790;2023-11-22T12:38:30;7.37;;;4.10;;
17251;SDS011;8742;51.716;8.790;2023-11-22T12:40:57;8.90;;;6.33;;
17251;SDS011;8742;51.716;8.790;2023-11-22T12:43:24;6.17;;;4.30;;
17251;SDS011;8742;51.716;8.790;2023-11-22T12:45:58;10.87;;;3.87;;
17251;SDS011;8742;51.716;8.790;2023-11-22T12:48:25;6.70;;;4.30;;
17251;SDS011;8742;51.716;8.790;2023-11-22T12:50:55;8.70;;;4.20;;
17251;SDS011;8742;51.716;8.790;2023-11-22T12:53:24;6.77;;;4.20;;
17251;SDS011;8742;51.716;8.790;2023-11-22T12:55:53;5.03;;;3.70;;
17251;SDS011;8742;51.716;8.790;2023-11-22T12:58:21;7.77;;;3.60;;
17251;SDS011;8742;51.716;8.790;2023-11-22T13:00:49;5.37;;;4.10;;
17251;SDS011;8742;51.716;8.790;2023-11-22T13:03:22;7.17;;;4.53;;
17251;SDS011;8742;51.716;8.790;2023-11-22T13:05:50;10.10;;;4.37;;
17251;SDS011;8742;51.716;8.790;2023-11-22T13:08:17;5.43;;;3.87;;
17251;SDS011;8742;51.716;8.790;2023-11-22T13:10:46;6.10;;;3.97;;
17251;SDS011;8742;51.716;8.790;2023-11-22T13:13:16;7.30;;;4.23;;
17251;SDS011;8742;51.716;8.790;2023-11-22T13:15:43;7.30;;;3.70;;
17251;SDS011;8742;51.716;8.790;2023-11-22T13:18:10;5.70;;;4.03;;
17251;SDS011;8742;51.716;8.790;2023-11-22T13:20:37;8.13;;;3.47;;
17251;SDS011;8742;51.716;8.790;2023-11-22T13:23:05;7.50;;;3.83;;
17251;SDS011;8742;51.716;8.790;2023-11-22T13:25:32;8.80;;;4.03;;
17251;SDS011;8742;51.716;8.790;2023-11-22T13:28:00;4.93;;;3.77;;
17251;SDS011;8742;51.716;8.790;2023-11-22T13:30:29;7.83;;;3.83;;
17251;SDS011;8742;51.716;8.790;2023-11-22T13:32:56;7.67;;;3.97;;
17251;SDS011;8742;51.716;8.790;2023-11-22T13:35:23;5.60;;;3.93;;
17251;SDS011;8742;51.716;8.790;2023-11-22T13:37:52;6.03;;;3.50;;
17251;SDS011;8742;51.716;8.790;2023-11-22T13:40:19;4.93;;;3.57;;
17251;SDS011;8742;51.716;8.790;2023-11-22T13:42:48;8.33;;;3.93;;
17251;SDS011;8742;51.716;8.790;2023-11-22T13:45:19;7.27;;;3.50;;
17251;SDS011;8742;51.716;8.790;2023-11-22T13:47:47;5.93;;;3.90;;
17251;SDS011;8742;51.716;8.790;2023-11-22T13:50:15;7.00;;;3.47;;
17251;SDS011;8742;51.716;8.790;2023-11-22T13:52:44;4.43;;;3.60;;
17251;SDS011;8742;51.716;8.790;2023-11-22T13:55:11;6.53;;;3.60;;
17251;SDS011;8742;51.716;8.790;2023-11-22T13:57:38;8.10;;;3.87;;
17251;SDS011;8742;51.716;8.790;2023-11-22T14:00:06;10.50;;;3.93;;
17251;SDS011;8742;51.716;8.790;2023-11-22T14:02:38;6.67;;;3.33;;
17251;SDS011;8742;51.716;8.790;2023-11-22T14:05:07;5.60;;;3.20;;
17251;SDS011;8742;51.716;8.790;2023-11-22T14:07:37;4.97;;;3.40;;
17251;SDS011;8742;51.716;8.790;2023-11-22T14:10:05;6.00;;;3.50;;
17251;SDS011;8742;51.716;8.790;2023-11-22T14:12:33;7.80;;;3.43;;
17251;SDS011;8742;51.716;8.790;2023-11-22T14:15:00;10.10;;;3.53;;
17251;SDS011;8742;51.716;8.790;2023-11-22T14:17:29;6.20;;;3.00;;
17251;SDS011;8742;51.716;8.790;2023-11-22T14:19:57;5.07;;;3.73;;
17251;SDS011;8742;51.716;8.790;2023-11-22T14:22:24;4.93;;;3.20;;
17251;SDS011;8742;51.716;8.790;2023-11-22T14:24:52;5.40;;;3.13;;
17251;SDS011;8742;51.716;8.790;2023-11-22T14:27:19;5.43;;;3.43;;
17251;SDS011;8742;51.716;8.790;2023-11-22T14:29:46;5.83;;;3.43;;
17251;SDS011;8742;51.716;8.790;2023-11-22T14:32:15;7.17;;;3.50;;
17251;SDS011;8742;51.716;8.790;2023-11-22T14:34:42;6.13;;;3.20;;
17251;SDS011;8742;51.716;8.790;2023-11-22T14:37:11;5.50;;;3.10;;
17251;SDS011;8742;51.716;8.790;2023-11-22T14:39:38;5.63;;;3.10;;
17251;SDS011;8742;51.716;8.790;2023-11-22T14:42:05;5.77;;;3.40;;
17251;SDS011;8742;51.716;8.790;2023-11-22T14:44:32;5.73;;;3.27;;
17251;SDS011;8742;51.716;8.790;2023-11-22T14:46:59;7.03;;;3.27;;
17251;SDS011;8742;51.716;8.790;2023-11-22T14:49:30;6.27;;;3.63;;
17251;SDS011;8742;51.716;8.790;2023-11-22T14:51:57;6.97;;;3.27;;
17251;SDS011;8742;51.716;8.790;2023-11-22T14:54:25;10.87;;;3.60;;
17251;SDS011;8742;51.716;8.790;2023-11-22T14:56:52;10.23;;;4.07;;